createdAt,value
2022-12-31T00:01:41.710Z,93.6
2022-12-31T00:04:07.821Z,93.7
2022-12-31T00:06:33.915Z,93.8
2022-12-31T00:09:00.014Z,93.7
2022-12-31T00:11:26.093Z,93.5
2022-12-31T00:13:51.195Z,93.4
2022-12-31T00:16:17.294Z,93.5
2022-12-31T00:18:43.534Z,93.6
2022-12-31T00:21:09.484Z,93.6
2022-12-31T00:23:35.613Z,93.2
2022-12-31T00:26:01.680Z,92.8
2022-12-31T00:28:27.769Z,92.9
2022-12-31T00:30:53.874Z,93.1
2022-12-31T00:33:19.967Z,93.3
2022-12-31T00:35:46.059Z,93.1
2022-12-31T00:38:12.155Z,92.9
2022-12-31T00:40:38.274Z,92.9
2022-12-31T00:43:04.350Z,92.6
2022-12-31T00:45:29.478Z,92.8
2022-12-31T00:47:55.574Z,92.1
2022-12-31T00:50:21.688Z,91.8
2022-12-31T00:52:47.754Z,91.7
2022-12-31T00:55:13.925Z,91.5
2022-12-31T00:57:39.933Z,91.3
2022-12-31T01:00:06.042Z,90.4
2022-12-31T01:02:32.128Z,90
2022-12-31T01:04:58.219Z,89.8
2022-12-31T01:07:24.320Z,89.7
2022-12-31T01:09:50.402Z,90.1
2022-12-31T01:12:16.499Z,90.1
2022-12-31T01:14:42.642Z,90.2
2022-12-31T01:17:07.740Z,89.7
2022-12-31T01:19:33.827Z,89.3
2022-12-31T01:21:59.905Z,89.1
2022-12-31T01:24:26.029Z,88.9
2022-12-31T01:26:52.089Z,88.6
2022-12-31T01:29:18.200Z,88.7
2022-12-31T01:31:44.338Z,88.9
2022-12-31T01:34:10.389Z,89
2022-12-31T01:39:02.579Z,88.9
2022-12-31T01:41:28.667Z,89.3
2022-12-31T01:43:54.770Z,89.4
2022-12-31T01:46:20.857Z,89.4
2022-12-31T01:48:45.972Z,89.8
2022-12-31T01:51:12.095Z,90.2
2022-12-31T01:53:38.163Z,90.5
2022-12-31T01:56:04.262Z,90.4
2022-12-31T01:58:30.371Z,90.3
2022-12-31T02:00:56.460Z,90
2022-12-31T02:03:22.541Z,90.2
2022-12-31T02:05:48.642Z,90.5
2022-12-31T02:08:14.743Z,90.7
2022-12-31T02:10:40.873Z,91
2022-12-31T02:13:06.916Z,91.2
2022-12-31T02:15:33.015Z,91.5
2022-12-31T02:17:59.128Z,91.8
2022-12-31T02:20:24.257Z,91.8
2022-12-31T02:22:50.339Z,91.8
2022-12-31T02:25:16.436Z,92.1
2022-12-31T02:27:42.516Z,92.3
2022-12-31T02:30:08.639Z,92.5
2022-12-31T02:32:34.706Z,92.3
2022-12-31T02:35:00.808Z,92
2022-12-31T02:37:26.901Z,91.7
2022-12-31T02:39:52.993Z,91.8
2022-12-31T02:42:19.087Z,91.9
2022-12-31T02:44:45.195Z,91.5
2022-12-31T02:47:11.283Z,91.3
2022-12-31T02:49:37.387Z,91.1
2022-12-31T02:52:02.499Z,90.5
2022-12-31T02:54:28.575Z,90.5
2022-12-31T02:56:54.689Z,90.1
2022-12-31T02:59:20.784Z,89.9
2022-12-31T03:01:46.883Z,89.8
2022-12-31T03:04:13.011Z,90.1
2022-12-31T03:06:39.066Z,90.9
2022-12-31T03:09:05.208Z,90.7
2022-12-31T03:11:31.263Z,91.1
2022-12-31T03:13:57.377Z,90.4
2022-12-31T03:16:23.459Z,90.3
2022-12-31T03:18:49.551Z,89.9
2022-12-31T03:21:15.644Z,89.8
2022-12-31T03:23:40.765Z,89
2022-12-31T03:28:32.957Z,87.4
2022-12-31T03:30:59.045Z,87.7
2022-12-31T03:33:25.146Z,87.7
2022-12-31T03:38:17.356Z,88.2
2022-12-31T03:40:43.436Z,88.4
2022-12-31T03:43:09.524Z,88.2
2022-12-31T03:45:35.635Z,88.2
2022-12-31T03:48:01.710Z,88.9
2022-12-31T03:50:27.833Z,88.9
2022-12-31T03:52:53.920Z,88.4
2022-12-31T03:55:19.012Z,88.2
2022-12-31T03:57:45.114Z,87.8
2022-12-31T04:00:11.237Z,88
2022-12-31T04:02:37.311Z,87.5
2022-12-31T04:05:03.484Z,87.2
2022-12-31T04:07:29.494Z,86.9
2022-12-31T04:09:55.621Z,86.8
2022-12-31T04:12:21.717Z,86.6
2022-12-31T04:14:47.797Z,86.2
2022-12-31T04:17:13.891Z,85.8
2022-12-31T04:19:39.983Z,85.4
2022-12-31T04:24:32.169Z,85.7
2022-12-31T04:26:57.283Z,85.7
2022-12-31T04:29:23.375Z,85.7
2022-12-31T04:31:49.473Z,85.8
2022-12-31T04:34:15.622Z,85.7
2022-12-31T04:36:41.656Z,85.5
2022-12-31T04:39:07.755Z,85.6
2022-12-31T04:41:33.852Z,85.6
2022-12-31T04:43:59.943Z,85
2022-12-31T04:46:26.053Z,84.4
2022-12-31T04:48:52.137Z,84.5
2022-12-31T04:51:18.225Z,85.1
2022-12-31T04:53:44.334Z,85
2022-12-31T04:56:10.415Z,85.2
2022-12-31T04:58:35.532Z,85
2022-12-31T05:01:01.623Z,84.9
2022-12-31T05:03:27.716Z,84.7
2022-12-31T05:05:53.823Z,85
2022-12-31T05:08:19.940Z,85.3
2022-12-31T05:10:45.997Z,85.7
2022-12-31T05:13:12.101Z,86.3
2022-12-31T05:15:38.189Z,86.9
2022-12-31T05:18:04.276Z,86.9
2022-12-31T05:20:30.384Z,87.3
2022-12-31T05:22:56.495Z,87.3
2022-12-31T05:25:22.556Z,87.6
2022-12-31T05:27:48.652Z,88
2022-12-31T05:30:13.773Z,88.3
2022-12-31T05:32:39.873Z,88
2022-12-31T05:35:05.949Z,87.6
2022-12-31T05:37:32.072Z,87.4
2022-12-31T05:39:58.247Z,87.4
2022-12-31T05:42:24.246Z,87.5
2022-12-31T05:44:50.349Z,87.4
2022-12-31T05:47:16.442Z,87
2022-12-31T05:49:42.522Z,86.8
2022-12-31T05:52:08.620Z,87
2022-12-31T05:54:34.711Z,86.8
2022-12-31T05:57:00.812Z,87
2022-12-31T05:59:26.907Z,87.2
2022-12-31T06:01:52.030Z,87.6
2022-12-31T06:04:18.119Z,87.8
2022-12-31T06:06:44.202Z,87.8
2022-12-31T06:09:10.295Z,87.9
2022-12-31T06:11:36.407Z,88.1
2022-12-31T06:14:02.493Z,88.1
2022-12-31T06:16:27.600Z,88.3
2022-12-31T06:18:53.698Z,88.1
2022-12-31T06:21:19.792Z,88.1
2022-12-31T06:23:45.909Z,88.1
2022-12-31T06:26:11.993Z,87.7
2022-12-31T06:28:38.086Z,87.7
2022-12-31T06:31:04.178Z,87.6
2022-12-31T06:33:30.343Z,87.6
2022-12-31T06:35:56.384Z,87.2
2022-12-31T06:38:22.446Z,87.3
2022-12-31T06:40:48.552Z,87.7
2022-12-31T06:43:14.642Z,87.9
2022-12-31T06:45:40.745Z,87.8
2022-12-31T06:48:06.832Z,87.8
2022-12-31T06:50:31.952Z,87.5
2022-12-31T06:52:58.061Z,87.5
2022-12-31T06:55:24.147Z,87.4
2022-12-31T06:57:50.223Z,87.3
2022-12-31T07:00:16.324Z,87.4
2022-12-31T07:02:42.414Z,87.4
2022-12-31T07:05:08.511Z,87.1
2022-12-31T07:07:34.606Z,86.9
2022-12-31T07:10:00.806Z,86.8
2022-12-31T07:12:26.821Z,87.2
2022-12-31T07:14:52.898Z,87.1
2022-12-31T07:17:18.987Z,87
2022-12-31T07:19:45.072Z,86.9
2022-12-31T07:22:10.169Z,86.4
2022-12-31T07:24:36.327Z,86.5
2022-12-31T07:27:02.380Z,86.4
2022-12-31T07:29:28.480Z,86.8
2022-12-31T07:31:54.556Z,86.5
2022-12-31T07:34:20.654Z,86.6
2022-12-31T07:36:46.790Z,86.7
2022-12-31T07:39:12.894Z,87
2022-12-31T07:41:38.944Z,87.1
2022-12-31T07:44:05.072Z,87.3
2022-12-31T07:46:31.132Z,87.6
2022-12-31T07:49:06.263Z,87.8
2022-12-31T07:51:23.321Z,88.3
2022-12-31T07:53:48.435Z,89
2022-12-31T07:56:14.530Z,89.5
2022-12-31T07:58:40.691Z,89
2022-12-31T08:01:06.781Z,88.2
2022-12-31T08:03:32.821Z,88.3
2022-12-31T08:05:58.973Z,88.3
2022-12-31T08:08:25.032Z,88.3
2022-12-31T08:10:51.117Z,87.2
2022-12-31T08:13:17.222Z,87.4
2022-12-31T08:15:43.294Z,87.5
2022-12-31T08:18:09.417Z,87.7
2022-12-31T08:20:35.488Z,87.8
2022-12-31T08:23:01.564Z,87.2
2022-12-31T08:25:26.675Z,87.4
2022-12-31T08:27:52.760Z,86.9
2022-12-31T08:30:18.845Z,85.9
2022-12-31T08:32:44.951Z,85.5
2022-12-31T08:37:37.149Z,84.7
2022-12-31T08:40:03.273Z,83.2
2022-12-31T08:42:29.389Z,83
2022-12-31T08:44:55.421Z,82.4
2022-12-31T08:47:21.537Z,82.1
2022-12-31T08:49:47.648Z,82.1
2022-12-31T08:52:13.711Z,82.6
2022-12-31T08:54:39.814Z,82.1
2022-12-31T08:57:04.922Z,82.1
2022-12-31T08:59:31.024Z,82.4
2022-12-31T09:01:57.113Z,81.9
2022-12-31T09:04:23.195Z,82.8
2022-12-31T09:06:49.278Z,81.6
2022-12-31T09:09:15.385Z,81.8
2022-12-31T09:11:41.486Z,82
2022-12-31T09:14:07.576Z,82.4
2022-12-31T09:16:33.693Z,81.9
2022-12-31T09:18:59.771Z,82.1
2022-12-31T09:21:25.916Z,82.2
2022-12-31T09:23:52.044Z,81.4
2022-12-31T09:26:18.053Z,81.4
2022-12-31T09:28:43.164Z,80.9
2022-12-31T09:31:09.307Z,80.7
2022-12-31T09:36:01.505Z,81.1
2022-12-31T09:38:27.565Z,80.6
2022-12-31T09:40:53.644Z,80.5
2022-12-31T09:43:19.752Z,80.5
2022-12-31T09:45:45.837Z,79.9
2022-12-31T09:48:11.936Z,79.3
2022-12-31T09:50:38.094Z,79
2022-12-31T09:53:04.121Z,78.4
2022-12-31T09:55:30.212Z,78
2022-12-31T09:57:56.308Z,77.7
2022-12-31T10:00:21.422Z,78.2
2022-12-31T10:02:47.508Z,78.2
2022-12-31T10:05:13.619Z,77.5
2022-12-31T10:07:39.709Z,77.5
2022-12-31T10:10:05.807Z,76.4
2022-12-31T10:12:31.890Z,76.2
2022-12-31T10:14:58.001Z,76.2
2022-12-31T10:17:24.074Z,76
2022-12-31T10:19:50.186Z,76.1
2022-12-31T10:22:16.285Z,75.8
2022-12-31T10:24:42.399Z,74.8
2022-12-31T10:27:08.478Z,74.6
2022-12-31T10:29:34.566Z,74.1
2022-12-31T10:31:59.681Z,74.4
2022-12-31T10:34:25.930Z,74.1
2022-12-31T10:36:51.890Z,74.1
2022-12-31T10:39:17.963Z,74.3
2022-12-31T10:41:44.126Z,74
2022-12-31T10:44:10.167Z,74.1
2022-12-31T10:46:36.250Z,73.5
2022-12-31T10:49:02.327Z,74
2022-12-31T10:51:28.431Z,73.6
2022-12-31T10:53:54.552Z,73.4
2022-12-31T10:56:20.644Z,73.2
2022-12-31T10:58:46.748Z,73.3
2022-12-31T11:01:12.824Z,73.2
2022-12-31T11:03:37.948Z,73.5
2022-12-31T11:06:04.070Z,73
2022-12-31T11:08:30.114Z,72.3
2022-12-31T11:10:56.230Z,72
2022-12-31T11:13:22.351Z,70.8
2022-12-31T11:15:48.406Z,71.8
2022-12-31T11:18:14.491Z,72.1
2022-12-31T11:20:40.584Z,71.7
2022-12-31T11:23:06.713Z,70.9
2022-12-31T11:25:32.775Z,71.1
2022-12-31T11:27:58.864Z,71.8
2022-12-31T11:30:24.982Z,71
2022-12-31T11:32:51.147Z,71.3
2022-12-31T11:35:16.230Z,71.2
2022-12-31T11:37:42.363Z,71
2022-12-31T11:40:08.376Z,70.6
2022-12-31T11:42:34.512Z,70.4
2022-12-31T11:45:00.621Z,70.2
2022-12-31T11:47:26.760Z,70.5
2022-12-31T11:49:52.832Z,70.2
2022-12-31T11:52:18.891Z,70.4
2022-12-31T11:54:44.954Z,69.8
2022-12-31T11:57:11.065Z,69.7
2022-12-31T11:59:37.213Z,70.6
2022-12-31T12:02:03.224Z,69.4
2022-12-31T12:04:29.335Z,69
2022-12-31T12:06:54.439Z,69.7
2022-12-31T12:09:20.596Z,69.7
2022-12-31T12:11:46.628Z,69.3
2022-12-31T12:14:12.707Z,69.5
2022-12-31T12:16:38.807Z,69.8
2022-12-31T12:19:04.906Z,70
2022-12-31T12:21:31.149Z,69.8
2022-12-31T12:23:57.101Z,69.8
2022-12-31T12:26:23.193Z,69
2022-12-31T12:28:49.340Z,69.3
2022-12-31T12:31:15.448Z,69.3
2022-12-31T12:33:41.493Z,69.7
2022-12-31T12:36:07.672Z,68.8
2022-12-31T12:38:32.823Z,68.9
2022-12-31T12:40:58.854Z,68.2
2022-12-31T12:43:25.000Z,69.5
2022-12-31T12:45:50.973Z,70
2022-12-31T12:48:17.060Z,70.7
2022-12-31T12:50:43.143Z,70.3
2022-12-31T12:53:09.240Z,70.4
2022-12-31T12:55:35.455Z,70.9
2022-12-31T12:58:01.485Z,69.2
2022-12-31T13:00:27.540Z,69.3
2022-12-31T13:02:53.698Z,69.2
2022-12-31T13:05:19.729Z,69
2022-12-31T13:07:45.814Z,70.2
2022-12-31T13:10:10.944Z,69.5
2022-12-31T13:12:37.010Z,70.5
2022-12-31T13:15:03.136Z,70.6
2022-12-31T13:17:29.223Z,70.8
2022-12-31T13:19:55.348Z,72.2
2022-12-31T13:22:21.428Z,73.2
2022-12-31T13:24:47.564Z,73.3
2022-12-31T13:27:13.614Z,74.2
2022-12-31T13:29:39.786Z,75.1
2022-12-31T13:32:05.839Z,75.4
2022-12-31T13:34:31.907Z,76.7
2022-12-31T13:36:58.084Z,77.2
2022-12-31T13:39:24.082Z,76.9
2022-12-31T13:41:49.183Z,76.9
2022-12-31T13:44:15.379Z,77.7
2022-12-31T13:46:41.374Z,78.4
2022-12-31T13:49:07.470Z,79.2
2022-12-31T13:51:33.555Z,80
2022-12-31T13:53:59.669Z,80.9
2022-12-31T13:56:25.884Z,81.4
2022-12-31T13:58:51.893Z,82.9
2022-12-31T14:01:18.021Z,81.9
2022-12-31T14:03:44.063Z,82.7
2022-12-31T14:06:10.128Z,82.8
2022-12-31T14:08:36.233Z,84.4
2022-12-31T14:11:02.350Z,84.8
2022-12-31T14:13:27.447Z,84.5
2022-12-31T14:15:53.537Z,85.1
2022-12-31T14:18:19.648Z,85.8
2022-12-31T14:20:45.730Z,86.2
2022-12-31T14:23:11.806Z,87.2
2022-12-31T14:25:36.967Z,88
2022-12-31T14:28:03.029Z,88.1
2022-12-31T14:30:29.191Z,88.3
2022-12-31T14:32:55.219Z,89
2022-12-31T14:35:21.312Z,89.1
2022-12-31T14:37:47.416Z,90
2022-12-31T14:40:13.484Z,90.1
2022-12-31T14:42:39.618Z,90.2
2022-12-31T14:45:05.736Z,90.5
2022-12-31T14:47:31.807Z,90.9
2022-12-31T14:49:57.868Z,90.9
2022-12-31T14:52:24.024Z,91.4
2022-12-31T14:54:50.156Z,91.7
2022-12-31T14:57:15.164Z,91.2
2022-12-31T14:59:41.274Z,91.2
2022-12-31T15:02:07.429Z,91.4
2022-12-31T15:04:33.476Z,92.1
2022-12-31T15:06:59.588Z,92.1
2022-12-31T15:09:25.675Z,92.5
2022-12-31T15:11:51.889Z,92.4
2022-12-31T15:14:17.844Z,92.3
2022-12-31T15:16:44.004Z,92.6
2022-12-31T15:19:10.110Z,92.9
2022-12-31T15:21:36.191Z,93.8
2022-12-31T15:24:02.249Z,93.9
2022-12-31T15:26:28.402Z,93.8
2022-12-31T15:28:53.443Z,94.2
2022-12-31T15:31:19.579Z,94.5
2022-12-31T15:33:45.635Z,94.2
2022-12-31T15:36:11.717Z,94.5
2022-12-31T15:38:37.831Z,94.5
2022-12-31T15:41:03.900Z,94.6
2022-12-31T15:43:30.003Z,94.4
2022-12-31T15:45:56.096Z,94
2022-12-31T15:48:22.200Z,94.2
2022-12-31T15:50:48.314Z,94.3
2022-12-31T15:53:14.472Z,94.9
2022-12-31T15:55:40.567Z,94.9
2022-12-31T15:58:06.587Z,95.1
2022-12-31T16:00:31.683Z,94.9
2022-12-31T16:02:57.803Z,95.5
2022-12-31T16:05:23.884Z,95.9
2022-12-31T16:07:49.992Z,96.2
2022-12-31T16:10:16.088Z,96.4
2022-12-31T16:12:42.163Z,97.2
2022-12-31T16:15:08.277Z,97.5
2022-12-31T16:17:34.357Z,98.1
2022-12-31T16:20:00.592Z,98.2
2022-12-31T16:22:26.600Z,98.4
2022-12-31T16:24:52.652Z,99.1
2022-12-31T16:27:18.748Z,99.6
2022-12-31T16:29:44.839Z,99.6
2022-12-31T16:32:09.973Z,99.4
2022-12-31T16:34:36.039Z,99.4
2022-12-31T16:37:02.202Z,99.6
2022-12-31T16:39:28.375Z,99.7
2022-12-31T16:41:54.330Z,100
2022-12-31T16:44:20.427Z,100
2022-12-31T16:46:46.550Z,100
2022-12-31T16:49:12.609Z,100
2022-12-31T16:51:38.753Z,100
2022-12-31T16:54:04.818Z,100
2022-12-31T16:56:30.899Z,100
2022-12-31T16:58:57.011Z,100
2022-12-31T17:01:23.104Z,100
2022-12-31T17:03:48.335Z,100
2022-12-31T17:06:14.317Z,100
2022-12-31T17:08:40.489Z,100
2022-12-31T17:11:06.494Z,100
2022-12-31T17:13:32.600Z,100
2022-12-31T17:15:58.790Z,100
2022-12-31T17:18:24.781Z,100
2022-12-31T17:20:50.875Z,100
2022-12-31T17:23:16.959Z,100
2022-12-31T17:25:43.084Z,100
2022-12-31T17:28:09.203Z,100
2022-12-31T17:30:35.270Z,100
2022-12-31T17:33:01.377Z,100
2022-12-31T17:35:26.461Z,100
2022-12-31T17:37:52.571Z,100
2022-12-31T17:40:18.664Z,100
2022-12-31T17:42:44.743Z,100
2022-12-31T17:45:10.939Z,100
2022-12-31T17:47:36.949Z,100
2022-12-31T17:50:03.058Z,100
2022-12-31T17:52:29.211Z,100
2022-12-31T17:54:55.242Z,100
2022-12-31T17:57:21.366Z,100
2022-12-31T17:59:47.409Z,100
2022-12-31T18:02:13.523Z,100
2022-12-31T18:04:39.607Z,100
2022-12-31T18:07:04.727Z,100
2022-12-31T18:09:30.870Z,100
2022-12-31T18:11:56.928Z,100
2022-12-31T18:14:23.038Z,100
2022-12-31T18:16:49.171Z,100
2022-12-31T18:19:15.270Z,100
2022-12-31T18:21:41.306Z,100
2022-12-31T18:24:07.592Z,100
2022-12-31T18:26:33.656Z,100
2022-12-31T18:28:59.663Z,100
2022-12-31T18:31:25.680Z,100
2022-12-31T18:33:51.828Z,100
2022-12-31T18:36:17.940Z,100
2022-12-31T18:38:43.060Z,100
2022-12-31T18:41:09.396Z,100
2022-12-31T18:43:35.274Z,100
2022-12-31T18:46:01.257Z,100
2022-12-31T18:48:27.374Z,100
2022-12-31T18:50:54.178Z,100
2022-12-31T18:53:19.581Z,100
2022-12-31T18:55:45.640Z,100
2022-12-31T18:58:11.764Z,100
2022-12-31T19:00:37.836Z,100
2022-12-31T19:03:04.074Z,100
2022-12-31T19:05:30.122Z,100
2022-12-31T19:07:56.149Z,100
2022-12-31T19:10:21.321Z,100
2022-12-31T19:12:47.342Z,100
2022-12-31T19:15:13.463Z,100
2022-12-31T19:17:39.585Z,100
2022-12-31T19:20:05.635Z,100
2022-12-31T19:22:31.771Z,100
2022-12-31T19:24:57.817Z,100
2022-12-31T19:27:23.905Z,100
2022-12-31T19:29:49.999Z,100
2022-12-31T19:32:16.093Z,100
2022-12-31T19:34:42.223Z,100
2022-12-31T19:37:08.392Z,100
2022-12-31T19:39:34.382Z,100
2022-12-31T19:41:59.568Z,100
2022-12-31T19:44:25.582Z,100
2022-12-31T19:46:51.815Z,100
2022-12-31T19:49:17.791Z,100
2022-12-31T19:51:43.913Z,100
2022-12-31T19:54:09.972Z,100
2022-12-31T19:56:36.198Z,100
2022-12-31T19:59:02.145Z,100
2022-12-31T20:01:28.247Z,100
2022-12-31T20:03:54.342Z,100
2022-12-31T20:06:20.459Z,100
2022-12-31T20:08:46.624Z,100
2022-12-31T20:11:12.640Z,100
2022-12-31T20:13:37.776Z,100
2022-12-31T20:16:03.955Z,100
2022-12-31T20:18:29.922Z,100
2022-12-31T20:20:56.062Z,100
2022-12-31T20:23:22.140Z,100
2022-12-31T20:25:48.210Z,100
2022-12-31T20:28:14.378Z,100
2022-12-31T20:30:40.473Z,100
2022-12-31T20:33:06.605Z,100
2022-12-31T20:35:32.671Z,100
2022-12-31T20:37:58.792Z,100
2022-12-31T20:40:24.796Z,100
2022-12-31T20:42:50.908Z,100
2022-12-31T20:45:16.138Z,100
2022-12-31T20:47:42.121Z,100
2022-12-31T20:50:08.195Z,100
2022-12-31T20:52:34.305Z,100
2022-12-31T20:55:00.544Z,100
2022-12-31T20:57:26.580Z,100
2022-12-31T20:59:52.570Z,100
2022-12-31T21:02:18.659Z,100
2022-12-31T21:04:44.824Z,100
2022-12-31T21:07:10.917Z,100
2022-12-31T21:09:37.062Z,100
2022-12-31T21:12:03.082Z,100
2022-12-31T21:14:29.244Z,100
2022-12-31T21:16:54.268Z,100
2022-12-31T21:19:20.412Z,100
2022-12-31T21:21:46.450Z,100
2022-12-31T21:24:12.565Z,100
2022-12-31T21:26:38.635Z,100
2022-12-31T21:29:04.806Z,100
2022-12-31T21:31:30.935Z,100
2022-12-31T21:33:57.009Z,100
2022-12-31T21:36:23.035Z,100
2022-12-31T21:38:49.150Z,100
2022-12-31T21:41:15.210Z,100
2022-12-31T21:43:41.341Z,100
2022-12-31T21:46:07.462Z,100
2022-12-31T21:48:32.551Z,100
2022-12-31T21:50:58.652Z,100
2022-12-31T21:53:24.700Z,100
2022-12-31T21:55:50.842Z,100
2022-12-31T21:58:16.902Z,100
2022-12-31T22:00:43.011Z,100
2022-12-31T22:03:09.086Z,100
2022-12-31T22:05:35.220Z,100
2022-12-31T22:08:01.333Z,100
2022-12-31T22:10:27.398Z,100
2022-12-31T22:12:53.495Z,100
2022-12-31T22:15:19.635Z,100
2022-12-31T22:17:45.691Z,100
2022-12-31T22:20:10.781Z,100
2022-12-31T22:22:36.990Z,100
2022-12-31T22:25:02.974Z,100
2022-12-31T22:27:29.090Z,100
2022-12-31T22:29:55.161Z,100
2022-12-31T22:32:21.276Z,100
2022-12-31T22:34:46.371Z,100
2022-12-31T22:37:12.518Z,100
2022-12-31T22:39:38.579Z,100
2022-12-31T22:42:04.663Z,100
2022-12-31T22:44:30.759Z,100
2022-12-31T22:46:56.876Z,100
2022-12-31T22:49:22.951Z,100
2022-12-31T22:51:49.128Z,100
2022-12-31T22:54:15.169Z,100
2022-12-31T22:56:41.247Z,100
2022-12-31T22:59:07.420Z,100
2022-12-31T23:01:33.468Z,100
2022-12-31T23:03:59.536Z,100
2022-12-31T23:06:24.635Z,100
2022-12-31T23:08:50.747Z,100
2022-12-31T23:11:16.949Z,100
2022-12-31T23:13:42.943Z,100
2022-12-31T23:16:09.057Z,100
2022-12-31T23:18:35.269Z,100
2022-12-31T23:21:01.207Z,100
2022-12-31T23:23:27.400Z,100
2022-12-31T23:25:53.414Z,100
2022-12-31T23:28:19.502Z,100
2022-12-31T23:30:45.679Z,100
2022-12-31T23:33:11.693Z,100
2022-12-31T23:35:37.958Z,100
2022-12-31T23:38:03.001Z,100
2022-12-31T23:40:29.129Z,100
2022-12-31T23:42:55.178Z,100
2022-12-31T23:45:21.328Z,100
2022-12-31T23:47:47.447Z,100
2022-12-31T23:50:13.521Z,100
2022-12-31T23:52:39.623Z,100
2022-12-31T23:55:05.590Z,100
2022-12-31T23:57:31.676Z,100
2022-12-31T23:59:57.793Z,100
